Weather reports worldwide

Advertisment
Pian Rosa, Italy (16052): temperature & dewpoint: 18.04.2018 06:00:00 - 24.04.2018 06:00:00 (CEST)Pian Rosa, Italy (16052): wind speed: 18.04.2018 06:00:00 - 24.04.2018 06:00:00 (CEST)Pian Rosa, Italy (16052): wind direction: 18.04.2018 06:00:00 - 24.04.2018 06:00:00 (CEST)Pian Rosa, Italy (16052): visibility: 18.04.2018 06:00:00 - 24.04.2018 06:00:00 (CEST)Pian Rosa, Italy (16052): sunshine duration: 18.04.2018 06:00:00 - 24.04.2018 06:00:00 (CEST)
Date & Time tt [°C] td [°C] ff [km/h] ff [kn] dd vv [km] sd [min]
24.04.2018 06:00:00 -6,0 -14,3 28 15 ENE 20 -
24.04.2018 05:00:00 -5,4 -12,6 29 16 NE 10 -
24.04.2018 04:00:00 -5,0 -12,2 29 16 ENE 10 -
24.04.2018 03:00:00 -5,8 -5,8 31 17 NE 10 -
24.04.2018 02:00:00 -5,4 -5,4 29 16 NE 10 -
24.04.2018 01:00:00 -5,2 -5,2 42 23 NE 10 -
24.04.2018 00:00:00 -4,0 -4,3 15 8 N 10 -
23.04.2018 23:00:00 -3,6 -4,9 15 8 WNW 10 -
23.04.2018 22:00:00 -3,8 -6,3 13 7 N 10 -
23.04.2018 21:00:00 -3,0 -5,5 18 10 NNE 30 -
23.04.2018 20:00:00 -0,6 -3,1 5 3 - 10 12
23.04.2018 19:00:00 0,6 -3,0 5 3 SW 10 60
23.04.2018 18:00:00 0,8 -2,8 9 5 S 20 12
23.04.2018 17:00:00 0,2 -3,5 13 7 SSW 10 0
23.04.2018 16:00:00 0,6 -3,1 11 6 S 10 12
23.04.2018 15:00:00 0,8 -5,2 18 10 SSW 10 60
23.04.2018 14:00:00 1,2 -5,1 16 9 SSW 10 60
23.04.2018 13:00:00 2,0 -4,1 13 7 SSW 50 60
23.04.2018 12:00:00 1,8 -3,9 11 6 SSW 80 60
23.04.2018 11:00:00 1,0 -12,7 13 7 SSW 80 60
23.04.2018 10:00:00 0,0 -14,4 5 3 W 80 60
23.04.2018 09:00:00 -1,8 -8,7 5 3 W 80 24
23.04.2018 08:00:00 -4,6 -10,0 16 9 ENE 80 -
23.04.2018 07:00:00 -5,0 -8,9 18 10 ENE 30 -
23.04.2018 06:00:00 -5,2 -8,8 26 14 ENE 10 -
23.04.2018 05:00:00 -5,0 -9,6 24 13 ENE 10 -
23.04.2018 04:00:00 -4,4 -17,2 16 9 ENE 10 -
23.04.2018 03:00:00 -3,0 -14,4 0 0 N 10 -
23.04.2018 02:00:00 -3,0 -12,0 8 4 ESE 10 -
23.04.2018 01:00:00 -3,0 -6,1 9 5 SW 10 -
23.04.2018 00:00:00 -3,0 -5,3 11 6 SSW 10 -
22.04.2018 23:00:00 -3,0 -6,1 11 6 SSW 10 -
22.04.2018 22:00:00 -1,8 -6,5 5 3 S 10 -
22.04.2018 21:00:00 -1,0 -5,6 8 4 SSE 20 12
22.04.2018 20:00:00 -0,8 -5,6 8 4 S 80 42
22.04.2018 19:00:00 -0,2 -6,2 9 5 SSW 80 60
22.04.2018 18:00:00 -0,8 -7,8 5 3 E 80 60
22.04.2018 17:00:00 0,8 -5,0 8 4 SW 80 60
22.04.2018 16:00:00 1,0 -5,0 13 7 SSW 80 60
22.04.2018 15:00:00 2,0 -5,0 9 5 S 80 60
22.04.2018 14:00:00 2,0 -12,2 5 3 - 80 60
22.04.2018 13:00:00 2,4 -15,1 8 4 S 60 60
22.04.2018 12:00:00 2,6 -17,6 8 4 S 60 60
22.04.2018 11:00:00 2,6 -18,7 8 4 SSW 60 60
22.04.2018 10:00:00 2,0 -18,6 8 4 S 60 60
22.04.2018 09:00:00 0,0 -16,3 11 6 SSW 60 30
22.04.2018 08:00:00 -2,2 -17,4 16 9 SSW 60 0
22.04.2018 07:00:00 -3,0 -17,4 18 10 S 60 -
22.04.2018 06:00:00 -3,0 -13,0 11 6 S 10 -
22.04.2018 05:00:00 -3,0 -11,0 9 5 SW 10 -
22.04.2018 04:00:00 -3,6 -6,9 9 5 SW 10 -
22.04.2018 03:00:00 -3,6 -7,2 11 6 SW 10 -
22.04.2018 02:00:00 -3,0 -8,1 8 4 S 10 -
22.04.2018 01:00:00 -3,0 -11,0 15 8 SSW 10 -
22.04.2018 00:00:00 -2,0 -12,9 8 4 S 10 -
21.04.2018 23:00:00 -2,0 -14,1 15 8 SE 10 -
21.04.2018 22:00:00 -1,2 -9,8 0 0 N 10 -
21.04.2018 21:00:00 -1,0 -8,4 8 4 SSW 20 24
21.04.2018 20:00:00 0,0 -10,5 0 0 N 60 42
21.04.2018 19:00:00 -0,6 -11,6 4 2 - 60 60
21.04.2018 18:00:00 2,4 -6,7 4 2 S 60 60
21.04.2018 17:00:00 2,2 -6,6 8 4 SSW 60 60
21.04.2018 16:00:00 2,2 -7,4 5 3 S 80 60
21.04.2018 15:00:00 2,2 -11,0 4 2 - 80 60
21.04.2018 14:00:00 2,2 -7,4 11 6 SSW 80 60
21.04.2018 13:00:00 1,4 -8,1 8 4 SSW 80 60
21.04.2018 12:00:00 0,2 -9,5 8 4 SW 80 60
21.04.2018 11:00:00 0,0 -9,2 8 4 SW 80 60
21.04.2018 10:00:00 0,2 -8,0 11 6 SSW 80 60
21.04.2018 09:00:00 -1,6 -7,7 21 11 SSW 80 30
21.04.2018 08:00:00 -3,8 -9,6 16 9 SSW 80 -
21.04.2018 07:00:00 -4,0 -14,5 16 9 SSW 30 -
21.04.2018 06:00:00 -3,6 -16,5 9 5 SSW 10 -
21.04.2018 05:00:00 -3,6 -16,5 13 7 SSW 10 -
21.04.2018 04:00:00 -3,2 -18,3 8 4 SW 10 -
21.04.2018 03:00:00 -2,8 -18,8 8 4 S 10 -
21.04.2018 02:00:00 -2,0 -18,5 21 11 SE 10 -
21.04.2018 01:00:00 -1,8 -17,5 26 14 ESE 10 -
21.04.2018 00:00:00 -1,8 -15,2 21 11 SE 10 -
20.04.2018 23:00:00 -1,6 -16,1 26 14 ESE 10 -
20.04.2018 22:00:00 -1,4 -16,0 21 11 E 10 -
20.04.2018 21:00:00 -1,0 -14,5 18 10 E 40 -
20.04.2018 20:00:00 -0,6 -13,2 0 0 N 80 42
20.04.2018 19:00:00 0,0 -13,0 4 2 - 80 60
20.04.2018 18:00:00 1,2 -12,2 21 11 E 80 60
20.04.2018 17:00:00 1,2 -10,3 16 9 ESE 80 60
20.04.2018 16:00:00 1,2 -10,6 11 6 ESE 80 60
20.04.2018 15:00:00 1,0 -9,9 16 9 E 80 60
20.04.2018 14:00:00 0,8 -8,4 21 11 ESE 80 60
20.04.2018 13:00:00 1,4 -12,7 22 12 ESE 60 60
20.04.2018 12:00:00 1,0 -13,1 24 13 E 60 60
20.04.2018 11:00:00 0,2 -14,2 28 15 E 60 60
20.04.2018 10:00:00 0,0 -14,7 26 14 E 60 60
20.04.2018 09:00:00 -0,6 -15,3 29 16 E 60 30
20.04.2018 08:00:00 -2,0 -16,5 29 16 ESE 60 0
20.04.2018 07:00:00 -2,2 -15,6 13 7 S 40 -
20.04.2018 06:00:00 -2,2 -16,7 18 10 SSE 20 -
20.04.2018 05:00:00 -2,2 -16,3 24 13 ESE 10 -
20.04.2018 04:00:00 -2,4 -16,5 24 13 ESE 10 -
20.04.2018 03:00:00 -3,0 -14,7 21 11 E 10 -
20.04.2018 02:00:00 -3,0 -8,8 13 7 E 10 -
20.04.2018 01:00:00 -3,4 -8,1 13 7 W 10 -
20.04.2018 00:00:00 -3,2 -8,1 8 4 WNW 10 -
19.04.2018 23:00:00 -2,6 -8,3 8 4 W 10 -
19.04.2018 22:00:00 -1,8 -9,2 8 4 WSW 10 -
19.04.2018 21:00:00 -1,0 -9,8 0 0 N 20 0
19.04.2018 20:00:00 -0,8 -9,9 0 0 N 60 42
19.04.2018 19:00:00 -1,4 -10,0 0 0 N 80 60
19.04.2018 18:00:00 -0,8 -12,4 8 4 W 80 60
19.04.2018 17:00:00 -0,4 -14,3 0 0 N 80 60
19.04.2018 16:00:00 1,2 -13,7 0 0 N 80 60
19.04.2018 15:00:00 1,4 -13,5 4 2 - 80 60
19.04.2018 14:00:00 0,8 -15,7 5 3 - 80 60
19.04.2018 13:00:00 -0,6 -20,8 8 4 W 80 60
19.04.2018 12:00:00 -1,2 -23,1 8 4 NW 80 60
19.04.2018 11:00:00 -0,8 -21,6 9 5 WNW 80 60
19.04.2018 10:00:00 0,6 -18,7 8 4 E 80 60
19.04.2018 09:00:00 -1,2 -19,2 5 3 SE 80 24
19.04.2018 08:00:00 -2,8 -19,7 5 3 E 80 -
19.04.2018 07:00:00 -4,0 -15,6 5 3 SE 50 -
19.04.2018 06:00:00 -4,8 -14,1 9 5 SW 10 -
19.04.2018 05:00:00 -5,0 -14,8 9 5 SW 10 -
19.04.2018 04:00:00 -5,0 -17,8 8 4 SW 10 -
19.04.2018 03:00:00 -4,8 -19,0 9 5 S 10 -
19.04.2018 02:00:00 -4,2 -19,2 8 4 S 10 -
19.04.2018 01:00:00 -4,4 -17,2 11 6 SSW 10 -
19.04.2018 00:00:00 -3,8 -16,0 5 3 SSW 10 -
18.04.2018 23:00:00 -3,4 -15,1 5 3 W 10 -
18.04.2018 22:00:00 -2,8 -13,9 4 2 NW 10 -
18.04.2018 21:00:00 -2,2 -11,2 4 2 SSW 15 -
18.04.2018 20:00:00 -0,4 -13,7 5 3 S 40 42
18.04.2018 19:00:00 -1,0 -14,9 5 3 W 40 60
18.04.2018 18:00:00 -0,8 -11,3 5 3 NW 40 60
18.04.2018 17:00:00 -0,8 -9,9 5 3 WSW 40 60
18.04.2018 16:00:00 0,0 -13,6 5 3 SW 80 60
18.04.2018 15:00:00 0,0 -21,5 5 3 SW 80 60
18.04.2018 14:00:00 -1,0 -28,8 5 3 NE 80 60
18.04.2018 13:00:00 -2,0 -29,6 11 6 NNE 30 60
18.04.2018 12:00:00 -1,6 -29,3 13 7 ENE 50 60
18.04.2018 11:00:00 -0,8 -28,7 11 6 E 30 60
18.04.2018 10:00:00 -1,0 -28,8 15 8 ENE 30 60
18.04.2018 09:00:00 -2,6 -30,0 11 6 NNE 30 0
18.04.2018 08:00:00 -1,8 -29,5 8 4 NE 30 0
18.04.2018 07:00:00 -3,4 -30,0 11 6 ENE 30 -
18.04.2018 06:00:00 -4,4 -30,0 13 7 ENE 10 -

tt = temperature
td = dewpoint
ff = wind speed
dd = wind direction
vv = visibility
sd = sunshine duration

Next stations